createdAt,value
2019-05-20T00:01:21.030Z,75.38
2019-05-20T00:03:51.172Z,74.84
2019-05-20T00:06:21.338Z,75.35
2019-05-20T00:08:51.474Z,75.97
2019-05-20T00:11:21.660Z,76.15
2019-05-20T00:13:51.814Z,76.16
2019-05-20T00:16:21.974Z,76.46
2019-05-20T00:18:53.172Z,76.57
2019-05-20T00:21:23.310Z,75.87
2019-05-20T00:23:53.469Z,76.12
2019-05-20T00:26:23.656Z,75.36
2019-05-20T00:28:53.922Z,75.75
2019-05-20T00:31:24.056Z,76.40
2019-05-20T00:33:54.268Z,76.73
2019-05-20T00:36:25.607Z,76.72
2019-05-20T00:39:13.445Z,76.67
2019-05-20T00:41:43.620Z,76.75
2019-05-20T00:44:13.776Z,76.47
2019-05-20T00:46:43.926Z,76.02
2019-05-20T00:49:14.066Z,75.87
2019-05-20T00:51:44.439Z,76.04
2019-05-20T00:54:15.178Z,76.31
2019-05-20T00:56:46.567Z,77.16
2019-05-20T00:59:16.706Z,77.21
2019-05-20T01:01:46.866Z,77.05
2019-05-20T01:04:16.987Z,77.21
2019-05-20T01:06:47.124Z,77.18
2019-05-20T01:09:17.348Z,77.20
2019-05-20T01:11:47.538Z,76.92
2019-05-20T01:14:17.714Z,76.71
2019-05-20T01:16:47.882Z,77.42
2019-05-20T01:19:18.036Z,77.56
2019-05-20T01:21:48.208Z,77.36
2019-05-20T01:24:18.337Z,77.27
2019-05-20T01:26:48.628Z,77.21
2019-05-20T01:29:18.874Z,76.87
2019-05-20T01:31:49.007Z,76.91
2019-05-20T01:34:19.149Z,76.81
2019-05-20T01:36:49.318Z,76.85
2019-05-20T01:39:19.447Z,77.10
2019-05-20T01:41:49.640Z,76.69
2019-05-20T01:44:19.786Z,76.81
2019-05-20T01:46:49.986Z,76.74
2019-05-20T01:49:20.084Z,76.68
2019-05-20T01:51:50.225Z,76.48
2019-05-20T01:54:20.351Z,76.36
2019-05-20T01:56:50.659Z,76.29
2019-05-20T01:59:21.871Z,76.13
2019-05-20T02:01:52.054Z,76.21
2019-05-20T02:04:22.184Z,76.27
2019-05-20T02:06:52.327Z,76.17
2019-05-20T02:09:22.476Z,75.85
2019-05-20T02:11:52.863Z,75.87
2019-05-20T02:14:25.046Z,75.63
2019-05-20T02:16:55.202Z,75.55
2019-05-20T02:19:25.365Z,75.62
2019-05-20T02:21:55.553Z,75.74
2019-05-20T02:24:25.837Z,75.83
2019-05-20T02:26:56.075Z,75.89
2019-05-20T02:29:26.197Z,75.70
2019-05-20T02:31:56.370Z,75.91
2019-05-20T02:34:26.522Z,75.88
2019-05-20T02:36:56.664Z,76.25
2019-05-20T02:39:27.110Z,76.05
2019-05-20T02:41:57.405Z,76.00
2019-05-20T02:44:27.540Z,76.02
2019-05-20T02:46:57.682Z,75.75
2019-05-20T02:49:27.801Z,75.23
2019-05-20T02:51:57.958Z,75.45
2019-05-20T02:54:28.092Z,75.43
2019-05-20T02:56:58.252Z,74.91
2019-05-20T02:59:28.392Z,74.77
2019-05-20T03:01:58.588Z,74.64
2019-05-20T03:04:28.706Z,73.85
2019-05-20T03:06:58.914Z,73.64
2019-05-20T03:09:29.358Z,73.53
2019-05-20T03:11:59.572Z,73.19
2019-05-20T03:14:29.763Z,72.96
2019-05-20T03:16:59.903Z,73.02
2019-05-20T03:19:30.048Z,73.02
2019-05-20T03:22:00.209Z,72.04
2019-05-20T03:24:31.519Z,73.33
2019-05-20T03:27:02.168Z,73.27
2019-05-20T03:29:32.318Z,72.40
2019-05-20T03:32:02.496Z,72.94
2019-05-20T03:34:47.780Z,72.51
2019-05-20T03:37:04.478Z,72.67
2019-05-20T03:39:34.633Z,72.46
2019-05-20T03:42:05.098Z,72.49
2019-05-20T03:44:35.244Z,72.46
2019-05-20T03:47:05.419Z,72.73
2019-05-20T03:49:35.822Z,73.00
2019-05-20T03:52:05.959Z,71.91
2019-05-20T03:54:36.173Z,71.91
2019-05-20T03:57:06.452Z,72.04
2019-05-20T03:59:36.564Z,72.56
2019-05-20T04:02:06.698Z,72.55
2019-05-20T04:04:36.868Z,72.12
2019-05-20T04:07:07.040Z,71.84
2019-05-20T04:09:37.206Z,71.17
2019-05-20T04:12:07.508Z,71.66
2019-05-20T04:14:37.649Z,71.41
2019-05-20T04:17:07.818Z,71.11
2019-05-20T04:19:37.965Z,70.93
2019-05-20T04:22:08.116Z,70.91
2019-05-20T04:24:38.696Z,70.69
2019-05-20T04:27:08.952Z,70.87
2019-05-20T04:29:39.868Z,70.66
2019-05-20T04:32:10.326Z,70.70
2019-05-20T04:34:40.476Z,70.44
2019-05-20T04:37:10.606Z,70.46
2019-05-20T04:39:40.742Z,70.22
2019-05-20T04:42:10.866Z,69.89
2019-05-20T04:44:41.031Z,69.65
2019-05-20T04:47:11.204Z,69.59
2019-05-20T04:49:41.332Z,69.08
2019-05-20T04:52:11.481Z,68.95
2019-05-20T04:54:41.653Z,68.60
2019-05-20T04:57:11.800Z,68.77
2019-05-20T04:59:41.932Z,68.88
2019-05-20T05:02:12.065Z,69.01
2019-05-20T05:04:42.403Z,67.62
2019-05-20T05:07:12.532Z,67.75
2019-05-20T05:09:42.660Z,67.38
2019-05-20T05:12:12.907Z,67.01
2019-05-20T05:14:43.018Z,66.56
2019-05-20T05:17:13.318Z,66.25
2019-05-20T05:19:43.440Z,65.28
2019-05-20T05:22:13.592Z,64.61
2019-05-20T05:24:43.763Z,63.98
2019-05-20T05:27:13.925Z,63.43
2019-05-20T05:29:44.040Z,64.12
2019-05-20T05:32:15.814Z,64.20
2019-05-20T05:34:45.942Z,64.42
2019-05-20T05:37:16.081Z,64.59
2019-05-20T05:39:46.265Z,64.20
2019-05-20T05:42:16.502Z,64.54
2019-05-20T05:44:46.678Z,64.19
2019-05-20T05:47:16.893Z,63.93
2019-05-20T05:49:47.048Z,63.99
2019-05-20T05:52:17.593Z,62.75
2019-05-20T05:54:47.739Z,63.17
2019-05-20T05:57:17.884Z,61.70
2019-05-20T05:59:48.012Z,60.61
2019-05-20T06:02:19.225Z,59.54
2019-05-20T06:04:49.388Z,59.74
2019-05-20T06:07:19.712Z,59.21
2019-05-20T06:09:49.849Z,58.74
2019-05-20T06:12:20.130Z,58.21
2019-05-20T06:14:50.257Z,57.13
2019-05-20T06:17:20.604Z,56.43
2019-05-20T06:19:51.029Z,54.93
2019-05-20T06:22:21.208Z,55.49
2019-05-20T06:24:51.821Z,55.00
2019-05-20T06:27:22.021Z,53.48
2019-05-20T06:29:52.439Z,53.24
2019-05-20T06:32:22.575Z,52.57
2019-05-20T06:34:54.457Z,51.63
2019-05-20T06:37:26.600Z,51.82
2019-05-20T06:39:56.732Z,51.05
2019-05-20T06:42:27.520Z,51.70
2019-05-20T06:44:57.644Z,49.93
2019-05-20T06:47:28.074Z,49.08
2019-05-20T06:49:58.184Z,49.80
2019-05-20T06:52:35.740Z,49.85
2019-05-20T06:55:00.200Z,48.59
2019-05-20T06:57:31.067Z,48.90
2019-05-20T07:00:01.210Z,48.04
2019-05-20T07:02:31.411Z,47.59
2019-05-20T07:05:01.536Z,47.56
2019-05-20T07:07:31.660Z,48.03
2019-05-20T07:10:01.791Z,48.25
2019-05-20T07:12:40.445Z,48.21
2019-05-20T07:15:04.195Z,47.82
2019-05-20T07:17:35.952Z,48.22
2019-05-20T07:20:06.381Z,48.16
2019-05-20T07:22:53.923Z,47.77
2019-05-20T07:25:08.568Z,47.47
2019-05-20T07:27:38.767Z,48.27
2019-05-20T07:30:09.843Z,48.02
2019-05-20T07:32:40.145Z,46.99
2019-05-20T07:35:10.587Z,45.98
2019-05-20T07:37:40.723Z,45.32
2019-05-20T07:40:11.267Z,44.64
2019-05-20T07:42:41.441Z,43.77
2019-05-20T07:45:11.551Z,43.45
2019-05-20T07:47:41.901Z,44.10
2019-05-20T07:50:12.948Z,44.06
2019-05-20T07:52:43.193Z,44.15
2019-05-20T07:55:13.535Z,43.93
2019-05-20T07:57:46.484Z,44.45
2019-05-20T08:00:16.815Z,44.44
2019-05-20T08:02:47.039Z,43.72
2019-05-20T08:05:17.175Z,44.48
2019-05-20T08:07:52.528Z,44.59
2019-05-20T08:10:19.646Z,44.21
2019-05-20T08:12:49.810Z,44.55
2019-05-20T08:15:20.880Z,43.10
2019-05-20T08:17:51.033Z,43.02
2019-05-20T08:20:21.181Z,43.74
2019-05-20T08:22:51.345Z,43.78
2019-05-20T08:25:21.666Z,44.18
2019-05-20T08:27:51.823Z,43.89
2019-05-20T08:30:36.648Z,44.40
2019-05-20T08:33:07.703Z,44.27
2019-05-20T08:35:39.129Z,43.90
2019-05-20T08:38:09.422Z,44.68
2019-05-20T08:40:40.112Z,45.27
2019-05-20T08:43:10.348Z,45.88
2019-05-20T08:45:40.495Z,46.77
2019-05-20T08:48:10.618Z,47.36
2019-05-20T08:50:40.745Z,48.07
2019-05-20T08:53:10.878Z,48.91
2019-05-20T08:55:41.043Z,49.25
2019-05-20T08:58:11.229Z,49.69
2019-05-20T09:00:41.357Z,50.04
2019-05-20T09:03:11.502Z,49.73
2019-05-20T09:05:41.650Z,49.85
2019-05-20T09:08:11.837Z,50.25
2019-05-20T09:10:41.969Z,50.94
2019-05-20T09:13:12.128Z,50.99
2019-05-20T09:15:45.214Z,51.05
2019-05-20T09:18:14.489Z,51.02
2019-05-20T09:20:44.714Z,51.12
2019-05-20T09:23:14.880Z,51.43
2019-05-20T09:25:45.705Z,51.52
2019-05-20T09:28:15.855Z,51.64
2019-05-20T09:30:46.757Z,51.72
2019-05-20T09:33:17.290Z,51.94
2019-05-20T09:35:48.524Z,51.87
2019-05-20T09:38:21.056Z,51.95
2019-05-20T09:40:51.366Z,52.28
2019-05-20T09:43:21.580Z,52.42
2019-05-20T09:46:05.524Z,52.89
2019-05-20T09:48:25.204Z,52.89
2019-05-20T09:50:55.413Z,53.11
2019-05-20T09:53:25.575Z,53.08
2019-05-20T09:55:55.746Z,53.10
2019-05-20T09:58:26.020Z,53.34
2019-05-20T10:00:56.171Z,53.30
2019-05-20T10:03:26.348Z,54.45
2019-05-20T10:05:56.543Z,53.77
2019-05-20T10:08:37.502Z,53.74
2019-05-20T10:10:59.818Z,53.55
2019-05-20T10:13:30.652Z,53.49
2019-05-20T10:16:00.765Z,53.99
2019-05-20T10:18:37.526Z,53.49
2019-05-20T10:21:02.861Z,53.36
2019-05-20T10:23:33.081Z,52.52
2019-05-20T10:26:03.282Z,52.47
2019-05-20T10:28:33.402Z,52.28
2019-05-20T10:31:03.530Z,52.30
2019-05-20T10:33:36.988Z,52.10
2019-05-20T10:36:05.615Z,52.08
2019-05-20T10:38:35.809Z,52.50
2019-05-20T10:41:05.976Z,52.63
2019-05-20T10:43:36.106Z,52.89
2019-05-20T10:46:06.228Z,53.39
2019-05-20T10:48:36.370Z,53.29
2019-05-20T10:51:10.121Z,52.96
2019-05-20T10:53:38.329Z,52.83
2019-05-20T10:56:08.465Z,52.91
2019-05-20T10:58:38.764Z,52.61
2019-05-20T11:01:08.881Z,53.19
2019-05-20T11:03:39.025Z,52.85
2019-05-20T11:06:09.171Z,52.68
2019-05-20T11:08:39.300Z,52.71
2019-05-20T11:11:13.802Z,53.20
2019-05-20T11:13:41.301Z,53.08
2019-05-20T11:16:11.438Z,53.21
2019-05-20T11:18:41.571Z,53.13
2019-05-20T11:21:11.682Z,53.64
2019-05-20T11:23:41.834Z,54.73
2019-05-20T11:26:11.943Z,55.06
2019-05-20T11:28:42.087Z,54.52
2019-05-20T11:31:12.225Z,54.51
2019-05-20T11:33:42.378Z,54.49
2019-05-20T11:36:12.505Z,54.64
2019-05-20T11:38:42.633Z,54.04
2019-05-20T11:41:12.738Z,54.20
2019-05-20T11:43:42.879Z,53.30
2019-05-20T11:46:13.406Z,53.65
2019-05-20T11:48:43.627Z,53.38
2019-05-20T11:51:13.772Z,53.29
2019-05-20T11:53:43.891Z,53.70
2019-05-20T11:56:14.028Z,54.14
2019-05-20T11:58:44.167Z,53.41
2019-05-20T12:01:14.288Z,54.35
2019-05-20T12:03:44.421Z,53.63
2019-05-20T12:06:14.617Z,53.79
2019-05-20T12:08:44.759Z,53.58
2019-05-20T12:11:14.893Z,53.65
2019-05-20T12:13:45.099Z,53.57
2019-05-20T12:16:15.241Z,53.40
2019-05-20T12:18:45.409Z,53.15
2019-05-20T12:21:15.513Z,52.85
2019-05-20T12:23:45.653Z,52.73
2019-05-20T12:26:15.793Z,52.64
2019-05-20T12:28:45.946Z,53.62
2019-05-20T12:31:16.070Z,53.10
2019-05-20T12:33:46.213Z,53.83
2019-05-20T12:36:16.373Z,53.22
2019-05-20T12:38:46.515Z,53.61
2019-05-20T12:41:16.641Z,53.58
2019-05-20T12:43:46.934Z,52.75
2019-05-20T12:46:17.068Z,52.66
2019-05-20T12:48:47.345Z,52.57
2019-05-20T12:51:17.477Z,52.88
2019-05-20T12:53:47.624Z,52.35
2019-05-20T12:56:19.775Z,52.96
2019-05-20T12:58:49.677Z,53.01
2019-05-20T13:01:22.491Z,53.29
2019-05-20T13:03:52.628Z,52.92
2019-05-20T13:06:22.757Z,52.12
2019-05-20T13:08:52.906Z,52.75
2019-05-20T13:11:23.036Z,52.31
2019-05-20T13:13:53.185Z,52.62
2019-05-20T13:16:23.311Z,52.19
2019-05-20T13:18:56.059Z,52.24
2019-05-20T13:21:26.448Z,52.93
2019-05-20T13:23:57.752Z,52.55
2019-05-20T13:26:28.112Z,51.75
2019-05-20T13:28:59.610Z,51.81
2019-05-20T13:31:30.223Z,51.73
2019-05-20T13:34:00.391Z,52.34
2019-05-20T13:36:30.639Z,52.58
2019-05-20T13:39:00.776Z,52.79
2019-05-20T13:41:31.073Z,52.18
2019-05-20T13:44:01.244Z,52.26
2019-05-20T13:46:31.432Z,52.43
2019-05-20T13:49:01.585Z,52.97
2019-05-20T13:51:31.688Z,53.22
2019-05-20T13:54:01.834Z,53.24
2019-05-20T13:56:32.006Z,53.37
2019-05-20T13:59:02.129Z,53.58
2019-05-20T14:01:32.265Z,53.42
2019-05-20T14:04:02.449Z,53.94
2019-05-20T14:06:32.569Z,53.80
2019-05-20T14:09:07.413Z,53.93
2019-05-20T14:11:36.709Z,54.50
2019-05-20T14:14:06.895Z,53.72
2019-05-20T14:16:38.112Z,54.10
2019-05-20T14:19:11.871Z,54.26
2019-05-20T14:21:42.069Z,54.32
2019-05-20T14:24:12.905Z,54.18
2019-05-20T14:26:43.071Z,54.35
2019-05-20T14:29:13.409Z,54.53
2019-05-20T14:31:43.561Z,55.40
2019-05-20T14:34:13.723Z,55.06
2019-05-20T14:36:43.861Z,55.39
2019-05-20T14:39:14.052Z,55.75
2019-05-20T14:41:44.196Z,56.11
2019-05-20T14:44:14.367Z,56.64
2019-05-20T14:46:44.540Z,56.51
2019-05-20T14:49:14.688Z,56.98
2019-05-20T14:51:44.827Z,57.22
2019-05-20T14:54:14.962Z,57.19
2019-05-20T14:56:45.111Z,57.64
2019-05-20T14:59:15.304Z,57.83
2019-05-20T15:01:47.092Z,57.47
2019-05-20T15:04:18.384Z,57.35
2019-05-20T15:06:48.573Z,57.38
2019-05-20T15:09:18.757Z,57.37
2019-05-20T15:11:48.900Z,57.61
2019-05-20T15:14:19.112Z,57.49
2019-05-20T15:16:49.298Z,57.55
2019-05-20T15:19:19.478Z,57.25
2019-05-20T15:21:49.638Z,56.97
2019-05-20T15:24:19.777Z,57.22
2019-05-20T15:26:50.023Z,56.59
2019-05-20T15:29:27.944Z,56.59
2019-05-20T15:31:52.004Z,56.64
2019-05-20T15:34:23.231Z,56.66
2019-05-20T15:36:53.361Z,56.57
2019-05-20T15:39:23.485Z,56.72
2019-05-20T15:41:53.707Z,56.96
2019-05-20T15:44:23.876Z,57.02
2019-05-20T15:46:53.966Z,57.04
2019-05-20T15:49:24.457Z,57.27
2019-05-20T15:51:54.657Z,57.26
2019-05-20T15:54:24.859Z,57.58
2019-05-20T15:56:54.965Z,57.23
2019-05-20T15:59:25.089Z,57.55
2019-05-20T16:01:55.290Z,57.58
2019-05-20T16:04:25.523Z,57.91
2019-05-20T16:06:59.743Z,57.80
2019-05-20T16:09:27.647Z,58.31
2019-05-20T16:11:57.793Z,58.24
2019-05-20T16:14:27.976Z,58.10
2019-05-20T16:16:58.101Z,58.08
2019-05-20T16:19:29.150Z,57.72
2019-05-20T16:21:59.271Z,57.77
2019-05-20T16:24:29.449Z,57.99
2019-05-20T16:26:59.596Z,57.74
2019-05-20T16:29:29.735Z,57.69
2019-05-20T16:32:00.031Z,57.83
2019-05-20T16:34:30.159Z,57.86
2019-05-20T16:37:00.279Z,57.97
2019-05-20T16:39:31.481Z,58.60
2019-05-20T16:42:01.603Z,58.85
2019-05-20T16:44:31.799Z,59.04
2019-05-20T16:47:02.013Z,58.92
2019-05-20T16:49:32.158Z,59.73
2019-05-20T16:52:02.273Z,60.18
2019-05-20T16:54:32.425Z,60.55
2019-05-20T16:57:02.682Z,60.91
2019-05-20T16:59:34.516Z,60.75
2019-05-20T17:02:04.654Z,60.70
2019-05-20T17:04:34.813Z,60.74
2019-05-20T17:07:04.964Z,60.63
2019-05-20T17:09:35.111Z,60.83
2019-05-20T17:12:05.239Z,60.73
2019-05-20T17:14:35.474Z,60.70
2019-05-20T17:17:05.606Z,60.55
2019-05-20T17:19:35.741Z,60.43
2019-05-20T17:22:05.998Z,60.27
2019-05-20T17:24:36.143Z,60.72
2019-05-20T17:27:06.342Z,60.46
2019-05-20T17:29:38.993Z,60.53
2019-05-20T17:32:09.181Z,60.59
2019-05-20T17:34:39.393Z,60.73
2019-05-20T17:37:09.562Z,60.88
2019-05-20T17:39:39.888Z,60.87
2019-05-20T17:42:10.244Z,60.91
2019-05-20T17:44:40.368Z,60.81
2019-05-20T17:47:10.632Z,61.12
2019-05-20T17:49:41.128Z,61.23
2019-05-20T17:52:11.251Z,61.60
2019-05-20T17:54:41.380Z,62.07
2019-05-20T17:57:11.533Z,62.07
2019-05-20T17:59:41.679Z,62.58
2019-05-20T18:02:13.105Z,62.38
2019-05-20T18:04:43.269Z,62.53
2019-05-20T18:07:13.386Z,62.40
2019-05-20T18:09:47.647Z,62.55
2019-05-20T18:12:17.790Z,62.35
2019-05-20T18:14:52.545Z,62.33
2019-05-20T18:17:22.757Z,62.51
2019-05-20T18:19:52.953Z,62.60
2019-05-20T18:22:23.075Z,62.87
2019-05-20T18:24:53.280Z,62.11
2019-05-20T18:27:23.414Z,62.73
2019-05-20T18:29:53.562Z,62.74
2019-05-20T18:32:23.688Z,63.42
2019-05-20T18:34:53.847Z,63.81
2019-05-20T18:37:23.992Z,63.05
2019-05-20T18:39:54.142Z,63.19
2019-05-20T18:42:24.331Z,63.44
2019-05-20T18:44:54.482Z,63.72
2019-05-20T18:47:24.638Z,63.77
2019-05-20T18:49:54.788Z,63.52
2019-05-20T18:52:24.928Z,63.43
2019-05-20T18:54:55.082Z,63.40
2019-05-20T18:57:25.213Z,63.22
2019-05-20T18:59:55.512Z,63.36
2019-05-20T19:02:25.762Z,62.71
2019-05-20T19:04:57.051Z,62.32
2019-05-20T19:07:27.164Z,62.07
2019-05-20T19:09:57.307Z,62.03
2019-05-20T19:12:27.857Z,62.30
2019-05-20T19:14:59.112Z,62.06
2019-05-20T19:17:29.563Z,62.28
2019-05-20T19:19:59.939Z,61.92
2019-05-20T19:22:30.086Z,61.83
2019-05-20T19:25:00.276Z,62.08
2019-05-20T19:27:30.430Z,62.29
2019-05-20T19:30:00.733Z,62.54
2019-05-20T19:32:31.316Z,62.68
2019-05-20T19:35:01.488Z,62.66
2019-05-20T19:37:33.702Z,62.73
2019-05-20T19:40:04.494Z,62.76
2019-05-20T19:42:36.327Z,62.89
2019-05-20T19:45:06.871Z,63.07
2019-05-20T19:47:37.234Z,63.34
2019-05-20T19:50:07.706Z,63.72
2019-05-20T19:52:37.884Z,63.34
2019-05-20T19:55:08.388Z,63.49
2019-05-20T19:57:39.048Z,63.41
2019-05-20T20:00:10.762Z,63.67
2019-05-20T20:02:41.206Z,63.90
2019-05-20T20:05:12.205Z,63.99
2019-05-20T20:07:42.684Z,63.89
2019-05-20T20:10:12.970Z,64.01
2019-05-20T20:12:43.215Z,63.91
2019-05-20T20:15:18.474Z,63.77
2019-05-20T20:17:48.751Z,63.49
2019-05-20T20:20:18.992Z,63.42
2019-05-20T20:22:49.131Z,63.44
2019-05-20T20:25:19.291Z,63.71
2019-05-20T20:27:49.442Z,64.31
2019-05-20T20:30:19.671Z,64.17
2019-05-20T20:32:49.866Z,64.83
2019-05-20T20:35:20.127Z,64.35
2019-05-20T20:37:50.261Z,63.96
2019-05-20T20:40:21.412Z,63.89
2019-05-20T20:42:51.551Z,64.40
2019-05-20T20:45:21.715Z,64.26
2019-05-20T20:47:51.842Z,65.21
2019-05-20T20:50:21.996Z,64.75
2019-05-20T20:52:52.140Z,65.03
2019-05-20T20:55:22.365Z,65.10
2019-05-20T20:57:52.492Z,64.53
2019-05-20T21:00:22.621Z,64.70
2019-05-20T21:02:53.907Z,64.96
2019-05-20T21:05:25.322Z,65.15
2019-05-20T21:07:55.457Z,65.10
2019-05-20T21:10:25.583Z,65.44
2019-05-20T21:12:55.711Z,65.52
2019-05-20T21:15:25.899Z,65.47
2019-05-20T21:17:56.046Z,65.78
2019-05-20T21:20:26.172Z,65.35
2019-05-20T21:22:56.332Z,65.18
2019-05-20T21:25:26.481Z,65.05
2019-05-20T21:27:56.616Z,65.23
2019-05-20T21:30:26.760Z,65.48
2019-05-20T21:33:08.704Z,64.95
2019-05-20T21:35:28.714Z,65.01
2019-05-20T21:37:58.839Z,65.11
2019-05-20T21:40:28.974Z,64.89
2019-05-20T21:42:59.135Z,65.31
2019-05-20T21:45:29.362Z,64.96
2019-05-20T21:47:59.513Z,65.06
2019-05-20T21:50:29.672Z,64.86
2019-05-20T21:52:59.851Z,64.64
2019-05-20T21:55:30.001Z,64.73
2019-05-20T21:58:00.128Z,64.91
2019-05-20T22:01:01.492Z,64.91
2019-05-20T22:03:31.607Z,65.32
2019-05-20T22:06:01.750Z,65.16
2019-05-20T22:08:31.878Z,65.51
2019-05-20T22:11:02.043Z,66.25
2019-05-20T22:13:32.218Z,66.58
2019-05-20T22:16:02.492Z,66.16
2019-05-20T22:18:32.643Z,66.43
2019-05-20T22:21:02.850Z,66.36
2019-05-20T22:23:38.435Z,66.22
2019-05-20T22:26:08.837Z,66.30
2019-05-20T22:28:38.976Z,67.11
2019-05-20T22:31:09.125Z,67.04
2019-05-20T22:33:42.239Z,67.27
2019-05-20T22:36:11.270Z,68.37
2019-05-20T22:38:41.402Z,67.54
2019-05-20T22:41:11.611Z,68.60
2019-05-20T22:43:41.774Z,68.49
2019-05-20T22:46:12.775Z,67.99
2019-05-20T22:48:42.959Z,68.54
2019-05-20T22:51:13.110Z,68.62
2019-05-20T22:53:43.262Z,68.15
2019-05-20T22:56:13.418Z,68.23
2019-05-20T22:58:43.696Z,68.46
2019-05-20T23:01:13.832Z,68.08
2019-05-20T23:03:55.676Z,68.78
2019-05-20T23:06:15.831Z,68.76
2019-05-20T23:08:45.982Z,69.11
2019-05-20T23:11:16.154Z,68.73
2019-05-20T23:13:46.278Z,69.08
2019-05-20T23:16:16.441Z,69.11
2019-05-20T23:18:46.580Z,69.20
2019-05-20T23:21:16.732Z,69.44
2019-05-20T23:23:46.912Z,69.30
2019-05-20T23:26:17.060Z,69.63
2019-05-20T23:28:47.182Z,70.09
2019-05-20T23:31:17.327Z,70.20
2019-05-20T23:33:47.449Z,70.36
2019-05-20T23:36:17.582Z,69.86
2019-05-20T23:38:48.793Z,69.50
2019-05-20T23:41:18.935Z,69.20
2019-05-20T23:43:49.363Z,69.28
2019-05-20T23:46:19.515Z,69.38
2019-05-20T23:48:49.640Z,69.72
2019-05-20T23:51:19.784Z,69.79
2019-05-20T23:53:49.924Z,70.15
2019-05-20T23:56:20.059Z,69.85
2019-05-20T23:58:50.227Z,69.24
